Pagrindinis puslapis
METAR-TAF:

METAR-TAF

Oro uostai :

Formosa, Argentina

platuma: 26-12S, ilguma: 058-14W, Aukštis: 59 m

Dabartinis oras

Ataskaita buvo paskelbta 1 valandą ir 16 minutes, ne 22:00 UTC
Vėjas 10 kt iš Pietų/Pietvakarių
Temperatūra 22°C
Drėgmė 53%
Slėgis 1018 hPa
Matomumas 10 km arba daugiau
nėra debesų žemiau 1500 m ir nėra kamuolinių lietaus debesų

METAR: SARF 212200Z 20010KT CAVOK 22/12 Q1018

Laikas: 20:16 (23:16 UTC)

Prognozė

Ataskaita buvo paskelbta 6 valandos ir 16 minutes, ne 17:00 UTC
Prognozė galioja nuo 21 metu 18 UTC su 22 metu 18 UTC
Vėjas 15 kt iš Pietų
Matomumas 10 km arba daugiau
nėra debesų žemiau 1500 m ir nėra kamuolinių lietaus debesų

TAF: SARF 211700Z 2118/2218 18015KT CAVOK TX27/2119Z TN17/2209Z

Orai ataskaitas ir orų prognozės (METAR, TAF).

turimą stotys yra geltonos ir raudonos taškus žemėlapyje.

Perkelti pele per norėdami pamatyti stoties vardą.

Tada spustelėkite, norėdami matyti oro stebėjimo ir prognozės.

Norėdami pakeisti žemėlapį: spustelėkite ant žalios mygtukų su juodo kryžiaus žemyn,; žalią mygtuką su brūkšneliu, jei norite nutolinti; arba žalių rodyklių gretimoms žemėlapius.


METAR-TAF: